sensor_id;sensor_type;location;lat;lon;timestamp;P1;durP1;ratioP1;P2;durP2;ratioP2
3567;SDS011;1798;48.486;9.232;2023-03-04T00:02:11;97.60;;;50.22;;
3567;SDS011;1798;48.486;9.232;2023-03-04T00:04:38;103.60;;;51.25;;
3567;SDS011;1798;48.486;9.232;2023-03-04T00:07:05;103.90;;;50.35;;
3567;SDS011;1798;48.486;9.232;2023-03-04T00:09:32;105.40;;;51.30;;
3567;SDS011;1798;48.486;9.232;2023-03-04T00:11:58;99.55;;;50.63;;
3567;SDS011;1798;48.486;9.232;2023-03-04T00:14:26;104.68;;;51.78;;
3567;SDS011;1798;48.486;9.232;2023-03-04T00:16:53;106.80;;;52.83;;
3567;SDS011;1798;48.486;9.232;2023-03-04T00:19:19;105.75;;;54.58;;
3567;SDS011;1798;48.486;9.232;2023-03-04T00:21:46;117.53;;;56.13;;
3567;SDS011;1798;48.486;9.232;2023-03-04T00:24:13;107.63;;;53.70;;
3567;SDS011;1798;48.486;9.232;2023-03-04T00:26:40;108.13;;;52.30;;
3567;SDS011;1798;48.486;9.232;2023-03-04T00:29:07;110.50;;;51.90;;
3567;SDS011;1798;48.486;9.232;2023-03-04T00:31:35;107.10;;;50.95;;
3567;SDS011;1798;48.486;9.232;2023-03-04T00:34:01;110.17;;;52.13;;
3567;SDS011;1798;48.486;9.232;2023-03-04T00:36:28;102.82;;;52.22;;
3567;SDS011;1798;48.486;9.232;2023-03-04T00:38:55;103.50;;;52.20;;
3567;SDS011;1798;48.486;9.232;2023-03-04T00:41:22;99.00;;;48.80;;
3567;SDS011;1798;48.486;9.232;2023-03-04T00:43:49;100.45;;;51.08;;
3567;SDS011;1798;48.486;9.232;2023-03-04T00:46:15;95.95;;;51.40;;
3567;SDS011;1798;48.486;9.232;2023-03-04T00:48:43;112.07;;;52.78;;
3567;SDS011;1798;48.486;9.232;2023-03-04T00:51:10;110.60;;;51.33;;
3567;SDS011;1798;48.486;9.232;2023-03-04T00:53:37;119.55;;;53.55;;
3567;SDS011;1798;48.486;9.232;2023-03-04T00:56:04;118.55;;;56.30;;
3567;SDS011;1798;48.486;9.232;2023-03-04T00:58:31;117.93;;;55.95;;
3567;SDS011;1798;48.486;9.232;2023-03-04T01:00:58;107.18;;;51.63;;
3567;SDS011;1798;48.486;9.232;2023-03-04T01:03:25;110.50;;;51.15;;
3567;SDS011;1798;48.486;9.232;2023-03-04T01:05:56;112.35;;;52.35;;
3567;SDS011;1798;48.486;9.232;2023-03-04T01:08:23;106.20;;;54.17;;
3567;SDS011;1798;48.486;9.232;2023-03-04T01:10:50;107.30;;;51.90;;
3567;SDS011;1798;48.486;9.232;2023-03-04T01:13:17;106.88;;;50.47;;
3567;SDS011;1798;48.486;9.232;2023-03-04T01:15:44;99.60;;;50.15;;
3567;SDS011;1798;48.486;9.232;2023-03-04T01:18:11;104.95;;;52.63;;
3567;SDS011;1798;48.486;9.232;2023-03-04T01:20:37;101.60;;;50.63;;
3567;SDS011;1798;48.486;9.232;2023-03-04T01:23:06;103.45;;;51.45;;
3567;SDS011;1798;48.486;9.232;2023-03-04T01:25:33;100.40;;;51.55;;
3567;SDS011;1798;48.486;9.232;2023-03-04T01:27:59;112.22;;;53.58;;
3567;SDS011;1798;48.486;9.232;2023-03-04T01:30:26;114.38;;;55.88;;
3567;SDS011;1798;48.486;9.232;2023-03-04T01:32:53;111.47;;;54.22;;
3567;SDS011;1798;48.486;9.232;2023-03-04T01:35:19;118.95;;;53.13;;
3567;SDS011;1798;48.486;9.232;2023-03-04T01:37:46;109.17;;;53.17;;
3567;SDS011;1798;48.486;9.232;2023-03-04T01:40:14;105.70;;;51.90;;
3567;SDS011;1798;48.486;9.232;2023-03-04T01:42:41;110.03;;;54.23;;
3567;SDS011;1798;48.486;9.232;2023-03-04T01:45:10;109.70;;;55.57;;
3567;SDS011;1798;48.486;9.232;2023-03-04T01:47:38;112.55;;;55.45;;
3567;SDS011;1798;48.486;9.232;2023-03-04T01:50:10;101.53;;;52.85;;
3567;SDS011;1798;48.486;9.232;2023-03-04T01:52:43;118.63;;;54.30;;
3567;SDS011;1798;48.486;9.232;2023-03-04T01:55:13;112.47;;;54.75;;
3567;SDS011;1798;48.486;9.232;2023-03-04T01:57:43;113.05;;;54.78;;
3567;SDS011;1798;48.486;9.232;2023-03-04T02:00:14;117.00;;;52.70;;
3567;SDS011;1798;48.486;9.232;2023-03-04T02:02:44;129.15;;;55.90;;
3567;SDS011;1798;48.486;9.232;2023-03-04T02:05:11;123.20;;;57.70;;
3567;SDS011;1798;48.486;9.232;2023-03-04T02:07:38;118.97;;;57.08;;
3567;SDS011;1798;48.486;9.232;2023-03-04T02:10:06;111.72;;;55.85;;
3567;SDS011;1798;48.486;9.232;2023-03-04T02:12:38;122.00;;;58.35;;
3567;SDS011;1798;48.486;9.232;2023-03-04T02:15:05;119.40;;;55.80;;
3567;SDS011;1798;48.486;9.232;2023-03-04T02:17:33;115.22;;;55.10;;
3567;SDS011;1798;48.486;9.232;2023-03-04T02:20:02;103.75;;;52.53;;
3567;SDS011;1798;48.486;9.232;2023-03-04T02:22:37;119.13;;;55.80;;
3567;SDS011;1798;48.486;9.232;2023-03-04T02:25:06;110.27;;;55.27;;
3567;SDS011;1798;48.486;9.232;2023-03-04T02:27:37;110.72;;;53.55;;
3567;SDS011;1798;48.486;9.232;2023-03-04T02:30:04;112.63;;;57.03;;
3567;SDS011;1798;48.486;9.232;2023-03-04T02:32:31;116.40;;;54.07;;
3567;SDS011;1798;48.486;9.232;2023-03-04T02:34:58;108.07;;;53.78;;
3567;SDS011;1798;48.486;9.232;2023-03-04T02:37:25;110.05;;;53.65;;
3567;SDS011;1798;48.486;9.232;2023-03-04T02:39:52;114.35;;;56.30;;
3567;SDS011;1798;48.486;9.232;2023-03-04T02:42:18;112.03;;;55.38;;
3567;SDS011;1798;48.486;9.232;2023-03-04T02:44:47;111.80;;;55.28;;
3567;SDS011;1798;48.486;9.232;2023-03-04T02:47:15;110.07;;;54.35;;
3567;SDS011;1798;48.486;9.232;2023-03-04T02:49:43;118.70;;;55.67;;
3567;SDS011;1798;48.486;9.232;2023-03-04T02:52:12;120.55;;;55.40;;
3567;SDS011;1798;48.486;9.232;2023-03-04T02:54:40;113.32;;;55.10;;
3567;SDS011;1798;48.486;9.232;2023-03-04T02:57:07;110.30;;;53.88;;
3567;SDS011;1798;48.486;9.232;2023-03-04T02:59:35;111.20;;;53.67;;
3567;SDS011;1798;48.486;9.232;2023-03-04T03:02:04;104.70;;;52.97;;
3567;SDS011;1798;48.486;9.232;2023-03-04T03:04:32;121.93;;;55.73;;
3567;SDS011;1798;48.486;9.232;2023-03-04T03:06:59;114.25;;;54.05;;
3567;SDS011;1798;48.486;9.232;2023-03-04T03:09:26;109.77;;;54.03;;
3567;SDS011;1798;48.486;9.232;2023-03-04T03:11:52;109.65;;;55.35;;
3567;SDS011;1798;48.486;9.232;2023-03-04T03:14:19;113.53;;;53.97;;
3567;SDS011;1798;48.486;9.232;2023-03-04T03:16:46;121.30;;;55.80;;
3567;SDS011;1798;48.486;9.232;2023-03-04T03:19:14;107.23;;;53.60;;
3567;SDS011;1798;48.486;9.232;2023-03-04T03:21:40;112.25;;;53.45;;
3567;SDS011;1798;48.486;9.232;2023-03-04T03:24:07;119.60;;;55.22;;
3567;SDS011;1798;48.486;9.232;2023-03-04T03:26:34;107.28;;;54.38;;
3567;SDS011;1798;48.486;9.232;2023-03-04T03:29:00;112.97;;;52.75;;
3567;SDS011;1798;48.486;9.232;2023-03-04T03:31:27;111.57;;;54.92;;
3567;SDS011;1798;48.486;9.232;2023-03-04T03:33:54;108.03;;;51.33;;
3567;SDS011;1798;48.486;9.232;2023-03-04T03:36:22;123.15;;;54.50;;
3567;SDS011;1798;48.486;9.232;2023-03-04T03:38:49;121.00;;;55.83;;
3567;SDS011;1798;48.486;9.232;2023-03-04T03:41:16;108.13;;;54.42;;
3567;SDS011;1798;48.486;9.232;2023-03-04T03:43:42;111.32;;;54.33;;
3567;SDS011;1798;48.486;9.232;2023-03-04T03:46:09;113.30;;;55.28;;
3567;SDS011;1798;48.486;9.232;2023-03-04T03:48:36;106.25;;;52.30;;
3567;SDS011;1798;48.486;9.232;2023-03-04T03:51:03;114.78;;;53.80;;
3567;SDS011;1798;48.486;9.232;2023-03-04T03:53:31;123.32;;;58.20;;
3567;SDS011;1798;48.486;9.232;2023-03-04T03:55:58;106.47;;;54.45;;
3567;SDS011;1798;48.486;9.232;2023-03-04T03:58:24;110.07;;;54.90;;
3567;SDS011;1798;48.486;9.232;2023-03-04T04:00:51;112.10;;;56.88;;
3567;SDS011;1798;48.486;9.232;2023-03-04T04:03:18;103.03;;;51.60;;
3567;SDS011;1798;48.486;9.232;2023-03-04T04:05:45;110.75;;;54.35;;
3567;SDS011;1798;48.486;9.232;2023-03-04T04:08:12;111.00;;;52.58;;
3567;SDS011;1798;48.486;9.232;2023-03-04T04:10:40;102.78;;;53.20;;
3567;SDS011;1798;48.486;9.232;2023-03-04T04:13:07;122.45;;;57.20;;
3567;SDS011;1798;48.486;9.232;2023-03-04T04:15:33;118.95;;;55.42;;
3567;SDS011;1798;48.486;9.232;2023-03-04T04:18:00;105.88;;;53.75;;
3567;SDS011;1798;48.486;9.232;2023-03-04T04:20:27;96.65;;;50.15;;
3567;SDS011;1798;48.486;9.232;2023-03-04T04:22:54;108.15;;;53.90;;
3567;SDS011;1798;48.486;9.232;2023-03-04T04:25:20;109.85;;;52.65;;
3567;SDS011;1798;48.486;9.232;2023-03-04T04:27:49;113.50;;;53.40;;
3567;SDS011;1798;48.486;9.232;2023-03-04T04:30:15;114.43;;;54.57;;
3567;SDS011;1798;48.486;9.232;2023-03-04T04:32:42;108.05;;;52.90;;
3567;SDS011;1798;48.486;9.232;2023-03-04T04:35:09;120.57;;;56.90;;
3567;SDS011;1798;48.486;9.232;2023-03-04T04:37:36;119.97;;;55.07;;
3567;SDS011;1798;48.486;9.232;2023-03-04T04:40:03;103.75;;;50.92;;
3567;SDS011;1798;48.486;9.232;2023-03-04T04:42:30;117.40;;;53.67;;
3567;SDS011;1798;48.486;9.232;2023-03-04T04:44:58;112.67;;;53.50;;
3567;SDS011;1798;48.486;9.232;2023-03-04T04:47:25;104.10;;;51.42;;
3567;SDS011;1798;48.486;9.232;2023-03-04T04:49:52;113.90;;;53.70;;
3567;SDS011;1798;48.486;9.232;2023-03-04T04:52:18;115.55;;;52.83;;
3567;SDS011;1798;48.486;9.232;2023-03-04T04:54:45;112.88;;;54.80;;
3567;SDS011;1798;48.486;9.232;2023-03-04T04:57:11;116.95;;;54.72;;
3567;SDS011;1798;48.486;9.232;2023-03-04T04:59:38;102.88;;;52.65;;
3567;SDS011;1798;48.486;9.232;2023-03-04T05:02:06;114.30;;;54.70;;
3567;SDS011;1798;48.486;9.232;2023-03-04T05:04:33;108.25;;;52.88;;
3567;SDS011;1798;48.486;9.232;2023-03-04T05:07:00;109.75;;;52.42;;
3567;SDS011;1798;48.486;9.232;2023-03-04T05:09:27;105.30;;;52.72;;
3567;SDS011;1798;48.486;9.232;2023-03-04T05:11:54;111.78;;;54.20;;
3567;SDS011;1798;48.486;9.232;2023-03-04T05:14:20;123.20;;;55.22;;
3567;SDS011;1798;48.486;9.232;2023-03-04T05:16:47;106.68;;;55.97;;
3567;SDS011;1798;48.486;9.232;2023-03-04T05:19:15;122.10;;;56.30;;
3567;SDS011;1798;48.486;9.232;2023-03-04T05:21:42;133.07;;;58.60;;
3567;SDS011;1798;48.486;9.232;2023-03-04T05:24:09;116.53;;;56.80;;
3567;SDS011;1798;48.486;9.232;2023-03-04T05:26:36;109.32;;;53.55;;
3567;SDS011;1798;48.486;9.232;2023-03-04T05:29:02;113.37;;;55.47;;
3567;SDS011;1798;48.486;9.232;2023-03-04T05:31:29;114.00;;;55.28;;
3567;SDS011;1798;48.486;9.232;2023-03-04T05:33:56;124.88;;;53.90;;
3567;SDS011;1798;48.486;9.232;2023-03-04T05:36:24;111.65;;;53.70;;
3567;SDS011;1798;48.486;9.232;2023-03-04T05:38:51;107.60;;;53.10;;
3567;SDS011;1798;48.486;9.232;2023-03-04T05:41:18;114.82;;;53.58;;
3567;SDS011;1798;48.486;9.232;2023-03-04T05:43:46;117.50;;;52.83;;
3567;SDS011;1798;48.486;9.232;2023-03-04T05:46:13;105.25;;;52.80;;
3567;SDS011;1798;48.486;9.232;2023-03-04T05:48:42;107.45;;;51.55;;
3567;SDS011;1798;48.486;9.232;2023-03-04T05:51:09;100.78;;;51.75;;
3567;SDS011;1798;48.486;9.232;2023-03-04T05:53:40;101.00;;;49.95;;
3567;SDS011;1798;48.486;9.232;2023-03-04T05:56:07;104.90;;;51.03;;
3567;SDS011;1798;48.486;9.232;2023-03-04T05:58:34;107.38;;;54.08;;
3567;SDS011;1798;48.486;9.232;2023-03-04T06:01:01;115.07;;;52.55;;
3567;SDS011;1798;48.486;9.232;2023-03-04T06:03:28;103.93;;;51.83;;
3567;SDS011;1798;48.486;9.232;2023-03-04T06:05:55;104.28;;;50.13;;
3567;SDS011;1798;48.486;9.232;2023-03-04T06:08:22;106.43;;;50.75;;
3567;SDS011;1798;48.486;9.232;2023-03-04T06:10:52;98.53;;;50.33;;
3567;SDS011;1798;48.486;9.232;2023-03-04T06:13:19;114.88;;;50.85;;
3567;SDS011;1798;48.486;9.232;2023-03-04T06:15:46;103.78;;;50.00;;
3567;SDS011;1798;48.486;9.232;2023-03-04T06:18:13;101.80;;;50.58;;
3567;SDS011;1798;48.486;9.232;2023-03-04T06:20:39;108.00;;;52.72;;
3567;SDS011;1798;48.486;9.232;2023-03-04T06:23:06;106.15;;;52.45;;
3567;SDS011;1798;48.486;9.232;2023-03-04T06:25:33;103.30;;;50.20;;
3567;SDS011;1798;48.486;9.232;2023-03-04T06:28:02;92.82;;;48.95;;
3567;SDS011;1798;48.486;9.232;2023-03-04T06:30:28;112.18;;;52.22;;
3567;SDS011;1798;48.486;9.232;2023-03-04T06:32:55;106.35;;;53.90;;
3567;SDS011;1798;48.486;9.232;2023-03-04T06:35:22;97.50;;;50.10;;
3567;SDS011;1798;48.486;9.232;2023-03-04T06:37:48;99.70;;;47.65;;
3567;SDS011;1798;48.486;9.232;2023-03-04T06:40:15;98.13;;;47.35;;
3567;SDS011;1798;48.486;9.232;2023-03-04T06:42:42;96.13;;;48.15;;
3567;SDS011;1798;48.486;9.232;2023-03-04T06:45:10;109.15;;;51.33;;
3567;SDS011;1798;48.486;9.232;2023-03-04T06:47:37;99.50;;;47.92;;
3567;SDS011;1798;48.486;9.232;2023-03-04T06:50:04;98.47;;;48.97;;
3567;SDS011;1798;48.486;9.232;2023-03-04T06:52:32;99.05;;;47.42;;
3567;SDS011;1798;48.486;9.232;2023-03-04T06:54:58;96.20;;;48.50;;
3567;SDS011;1798;48.486;9.232;2023-03-04T06:57:25;99.47;;;46.63;;
3567;SDS011;1798;48.486;9.232;2023-03-04T06:59:52;91.65;;;48.85;;
3567;SDS011;1798;48.486;9.232;2023-03-04T07:02:20;110.22;;;50.40;;
3567;SDS011;1798;48.486;9.232;2023-03-04T07:04:47;112.75;;;51.13;;
3567;SDS011;1798;48.486;9.232;2023-03-04T07:07:13;112.05;;;53.08;;
3567;SDS011;1798;48.486;9.232;2023-03-04T07:09:40;109.60;;;51.78;;
3567;SDS011;1798;48.486;9.232;2023-03-04T07:12:07;111.22;;;51.47;;
3567;SDS011;1798;48.486;9.232;2023-03-04T07:14:34;106.35;;;52.42;;
3567;SDS011;1798;48.486;9.232;2023-03-04T07:17:01;102.43;;;51.42;;
3567;SDS011;1798;48.486;9.232;2023-03-04T07:19:29;100.68;;;50.25;;
3567;SDS011;1798;48.486;9.232;2023-03-04T07:21:56;98.05;;;50.00;;
3567;SDS011;1798;48.486;9.232;2023-03-04T07:24:22;115.47;;;54.20;;
3567;SDS011;1798;48.486;9.232;2023-03-04T07:26:49;129.18;;;58.38;;
3567;SDS011;1798;48.486;9.232;2023-03-04T07:29:16;137.33;;;54.37;;
3567;SDS011;1798;48.486;9.232;2023-03-04T07:31:43;104.47;;;48.50;;
3567;SDS011;1798;48.486;9.232;2023-03-04T07:34:11;122.70;;;50.07;;
3567;SDS011;1798;48.486;9.232;2023-03-04T07:36:40;106.97;;;47.77;;
3567;SDS011;1798;48.486;9.232;2023-03-04T07:39:07;137.07;;;53.83;;
3567;SDS011;1798;48.486;9.232;2023-03-04T07:41:35;124.87;;;53.00;;
3567;SDS011;1798;48.486;9.232;2023-03-04T07:44:02;130.83;;;54.03;;
3567;SDS011;1798;48.486;9.232;2023-03-04T07:46:29;127.10;;;51.00;;
3567;SDS011;1798;48.486;9.232;2023-03-04T07:48:56;128.77;;;53.33;;
3567;SDS011;1798;48.486;9.232;2023-03-04T07:51:24;116.37;;;49.50;;
3567;SDS011;1798;48.486;9.232;2023-03-04T07:53:55;108.77;;;49.97;;
3567;SDS011;1798;48.486;9.232;2023-03-04T07:56:24;129.77;;;55.10;;
3567;SDS011;1798;48.486;9.232;2023-03-04T07:58:52;116.53;;;52.60;;
3567;SDS011;1798;48.486;9.232;2023-03-04T08:01:20;112.80;;;49.50;;
3567;SDS011;1798;48.486;9.232;2023-03-04T08:03:49;126.83;;;51.73;;
3567;SDS011;1798;48.486;9.232;2023-03-04T08:06:16;151.30;;;53.27;;
3567;SDS011;1798;48.486;9.232;2023-03-04T08:08:44;151.63;;;51.97;;
3567;SDS011;1798;48.486;9.232;2023-03-04T08:11:13;122.67;;;51.70;;
3567;SDS011;1798;48.486;9.232;2023-03-04T08:13:40;128.70;;;55.57;;
3567;SDS011;1798;48.486;9.232;2023-03-04T08:16:09;139.67;;;57.10;;
3567;SDS011;1798;48.486;9.232;2023-03-04T08:18:36;146.90;;;53.83;;
3567;SDS011;1798;48.486;9.232;2023-03-04T08:21:06;133.77;;;53.53;;
3567;SDS011;1798;48.486;9.232;2023-03-04T08:23:34;123.47;;;52.40;;
3567;SDS011;1798;48.486;9.232;2023-03-04T08:26:04;101.00;;;45.90;;
3567;SDS011;1798;48.486;9.232;2023-03-04T08:28:33;122.07;;;48.80;;
3567;SDS011;1798;48.486;9.232;2023-03-04T08:30:59;109.83;;;44.50;;
3567;SDS011;1798;48.486;9.232;2023-03-04T08:33:26;109.03;;;48.10;;
3567;SDS011;1798;48.486;9.232;2023-03-04T08:35:52;93.20;;;41.43;;
3567;SDS011;1798;48.486;9.232;2023-03-04T08:38:19;104.87;;;46.70;;
3567;SDS011;1798;48.486;9.232;2023-03-04T08:40:50;81.30;;;38.70;;
3567;SDS011;1798;48.486;9.232;2023-03-04T08:43:17;79.13;;;39.97;;
3567;SDS011;1798;48.486;9.232;2023-03-04T08:45:45;97.07;;;41.30;;
3567;SDS011;1798;48.486;9.232;2023-03-04T08:48:12;101.47;;;42.63;;
3567;SDS011;1798;48.486;9.232;2023-03-04T08:50:40;85.27;;;40.23;;
3567;SDS011;1798;48.486;9.232;2023-03-04T08:53:07;93.07;;;42.77;;
3567;SDS011;1798;48.486;9.232;2023-03-04T08:55:34;100.47;;;41.40;;
3567;SDS011;1798;48.486;9.232;2023-03-04T08:58:00;116.50;;;42.00;;
3567;SDS011;1798;48.486;9.232;2023-03-04T09:00:27;100.50;;;45.80;;
3567;SDS011;1798;48.486;9.232;2023-03-04T09:02:55;110.90;;;42.17;;
3567;SDS011;1798;48.486;9.232;2023-03-04T09:05:22;80.33;;;40.40;;
3567;SDS011;1798;48.486;9.232;2023-03-04T09:07:49;99.33;;;41.43;;
3567;SDS011;1798;48.486;9.232;2023-03-04T09:10:16;77.33;;;40.43;;
3567;SDS011;1798;48.486;9.232;2023-03-04T09:12:43;82.60;;;37.40;;
3567;SDS011;1798;48.486;9.232;2023-03-04T09:15:10;81.00;;;38.30;;
3567;SDS011;1798;48.486;9.232;2023-03-04T09:17:37;77.33;;;42.00;;
3567;SDS011;1798;48.486;9.232;2023-03-04T09:20:07;91.63;;;38.87;;
3567;SDS011;1798;48.486;9.232;2023-03-04T09:22:35;97.17;;;40.97;;
3567;SDS011;1798;48.486;9.232;2023-03-04T09:25:02;77.83;;;39.13;;
3567;SDS011;1798;48.486;9.232;2023-03-04T09:27:29;83.43;;;39.20;;
3567;SDS011;1798;48.486;9.232;2023-03-04T09:29:55;81.20;;;39.07;;
3567;SDS011;1798;48.486;9.232;2023-03-04T09:32:22;94.87;;;38.87;;
3567;SDS011;1798;48.486;9.232;2023-03-04T09:34:49;89.87;;;39.07;;
3567;SDS011;1798;48.486;9.232;2023-03-04T09:37:17;104.03;;;36.60;;
3567;SDS011;1798;48.486;9.232;2023-03-04T09:39:44;84.70;;;41.23;;
3567;SDS011;1798;48.486;9.232;2023-03-04T09:42:11;99.18;;;47.67;;
3567;SDS011;1798;48.486;9.232;2023-03-04T09:44:43;79.07;;;38.43;;
3567;SDS011;1798;48.486;9.232;2023-03-04T09:47:12;95.20;;;42.00;;
3567;SDS011;1798;48.486;9.232;2023-03-04T09:49:41;79.37;;;36.70;;
3567;SDS011;1798;48.486;9.232;2023-03-04T09:52:13;76.50;;;34.83;;
3567;SDS011;1798;48.486;9.232;2023-03-04T09:54:57;76.80;;;36.43;;
3567;SDS011;1798;48.486;9.232;2023-03-04T09:57:34;71.10;;;33.90;;
3567;SDS011;1798;48.486;9.232;2023-03-04T10:00:10;78.87;;;35.90;;
3567;SDS011;1798;48.486;9.232;2023-03-04T10:02:44;86.03;;;34.27;;
3567;SDS011;1798;48.486;9.232;2023-03-04T10:05:28;109.30;;;34.23;;
3567;SDS011;1798;48.486;9.232;2023-03-04T10:07:59;63.20;;;29.87;;
3567;SDS011;1798;48.486;9.232;2023-03-04T10:10:31;70.30;;;32.57;;
3567;SDS011;1798;48.486;9.232;2023-03-04T10:13:02;72.70;;;31.43;;
3567;SDS011;1798;48.486;9.232;2023-03-04T10:15:31;75.40;;;38.17;;
3567;SDS011;1798;48.486;9.232;2023-03-04T10:18:01;96.63;;;43.03;;
3567;SDS011;1798;48.486;9.232;2023-03-04T10:20:32;91.18;;;43.85;;
3567;SDS011;1798;48.486;9.232;2023-03-04T10:23:10;78.00;;;41.05;;
3567;SDS011;1798;48.486;9.232;2023-03-04T10:25:42;71.40;;;40.17;;
3567;SDS011;1798;48.486;9.232;2023-03-04T10:28:11;76.68;;;41.25;;
3567;SDS011;1798;48.486;9.232;2023-03-04T10:30:43;88.70;;;44.58;;
3567;SDS011;1798;48.486;9.232;2023-03-04T10:33:14;84.47;;;42.15;;
3567;SDS011;1798;48.486;9.232;2023-03-04T10:35:44;87.93;;;43.85;;
3567;SDS011;1798;48.486;9.232;2023-03-04T10:38:14;76.80;;;43.10;;
3567;SDS011;1798;48.486;9.232;2023-03-04T10:40:41;84.17;;;40.97;;
3567;SDS011;1798;48.486;9.232;2023-03-04T10:43:13;80.87;;;40.70;;
3567;SDS011;1798;48.486;9.232;2023-03-04T10:45:41;71.05;;;40.72;;
3567;SDS011;1798;48.486;9.232;2023-03-04T10:48:16;72.60;;;36.93;;
3567;SDS011;1798;48.486;9.232;2023-03-04T10:50:45;79.28;;;37.83;;
3567;SDS011;1798;48.486;9.232;2023-03-04T10:53:21;75.63;;;37.40;;
3567;SDS011;1798;48.486;9.232;2023-03-04T10:55:59;70.53;;;40.20;;
3567;SDS011;1798;48.486;9.232;2023-03-04T10:58:27;74.97;;;38.57;;
3567;SDS011;1798;48.486;9.232;2023-03-04T11:01:00;78.10;;;40.80;;
3567;SDS011;1798;48.486;9.232;2023-03-04T11:03:30;73.47;;;39.73;;
3567;SDS011;1798;48.486;9.232;2023-03-04T11:06:04;77.35;;;39.00;;
3567;SDS011;1798;48.486;9.232;2023-03-04T11:08:34;74.35;;;40.00;;
3567;SDS011;1798;48.486;9.232;2023-03-04T11:11:01;74.85;;;39.35;;
3567;SDS011;1798;48.486;9.232;2023-03-04T11:13:29;76.80;;;37.97;;
3567;SDS011;1798;48.486;9.232;2023-03-04T11:15:57;74.78;;;40.45;;
3567;SDS011;1798;48.486;9.232;2023-03-04T11:18:27;84.27;;;37.73;;
3567;SDS011;1798;48.486;9.232;2023-03-04T11:20:56;79.00;;;37.80;;
3567;SDS011;1798;48.486;9.232;2023-03-04T11:23:26;79.55;;;39.45;;
3567;SDS011;1798;48.486;9.232;2023-03-04T11:26:00;72.95;;;37.30;;
3567;SDS011;1798;48.486;9.232;2023-03-04T11:28:31;72.50;;;36.90;;
3567;SDS011;1798;48.486;9.232;2023-03-04T11:31:02;78.53;;;39.90;;
3567;SDS011;1798;48.486;9.232;2023-03-04T11:33:32;69.38;;;36.33;;
3567;SDS011;1798;48.486;9.232;2023-03-04T11:36:08;70.50;;;35.92;;
3567;SDS011;1798;48.486;9.232;2023-03-04T11:38:47;69.32;;;35.83;;
3567;SDS011;1798;48.486;9.232;2023-03-04T11:41:17;74.85;;;35.97;;
3567;SDS011;1798;48.486;9.232;2023-03-04T11:43:46;70.20;;;35.75;;
3567;SDS011;1798;48.486;9.232;2023-03-04T11:46:28;68.57;;;37.88;;
3567;SDS011;1798;48.486;9.232;2023-03-04T11:49:21;69.15;;;37.28;;
3567;SDS011;1798;48.486;9.232;2023-03-04T11:52:08;68.75;;;35.45;;
3567;SDS011;1798;48.486;9.232;2023-03-04T11:54:43;71.70;;;35.88;;
3567;SDS011;1798;48.486;9.232;2023-03-04T11:57:17;76.93;;;39.30;;
3567;SDS011;1798;48.486;9.232;2023-03-04T12:00:00;67.28;;;37.03;;
3567;SDS011;1798;48.486;9.232;2023-03-04T12:02:37;72.05;;;36.22;;
3567;SDS011;1798;48.486;9.232;2023-03-04T12:05:14;74.93;;;37.13;;
3567;SDS011;1798;48.486;9.232;2023-03-04T12:10:46;67.50;;;36.43;;
3567;SDS011;1798;48.486;9.232;2023-03-04T12:13:22;63.13;;;35.45;;
3567;SDS011;1798;48.486;9.232;2023-03-04T12:15:58;72.80;;;36.53;;
3567;SDS011;1798;48.486;9.232;2023-03-04T12:18:33;80.18;;;36.85;;
3567;SDS011;1798;48.486;9.232;2023-03-04T12:21:12;66.70;;;34.97;;
3567;SDS011;1798;48.486;9.232;2023-03-04T12:24:02;65.57;;;36.67;;
3567;SDS011;1798;48.486;9.232;2023-03-04T12:26:44;65.50;;;35.53;;
3567;SDS011;1798;48.486;9.232;2023-03-04T12:29:17;74.77;;;37.37;;
3567;SDS011;1798;48.486;9.232;2023-03-04T12:31:47;71.30;;;37.42;;
3567;SDS011;1798;48.486;9.232;2023-03-04T12:34:32;62.88;;;34.75;;
3567;SDS011;1798;48.486;9.232;2023-03-04T12:39:56;69.68;;;37.08;;
3567;SDS011;1798;48.486;9.232;2023-03-04T12:42:34;71.47;;;36.22;;
3567;SDS011;1798;48.486;9.232;2023-03-04T12:45:06;70.00;;;36.75;;
3567;SDS011;1798;48.486;9.232;2023-03-04T12:47:43;73.05;;;38.17;;
3567;SDS011;1798;48.486;9.232;2023-03-04T12:50:27;60.35;;;34.20;;
3567;SDS011;1798;48.486;9.232;2023-03-04T12:52:59;63.03;;;34.45;;
3567;SDS011;1798;48.486;9.232;2023-03-04T12:55:29;73.07;;;36.10;;
3567;SDS011;1798;48.486;9.232;2023-03-04T12:58:00;67.70;;;35.47;;
3567;SDS011;1798;48.486;9.232;2023-03-04T13:00:31;72.03;;;36.95;;
3567;SDS011;1798;48.486;9.232;2023-03-04T13:03:07;65.97;;;36.28;;
3567;SDS011;1798;48.486;9.232;2023-03-04T13:05:41;66.18;;;35.15;;
3567;SDS011;1798;48.486;9.232;2023-03-04T13:08:16;72.85;;;39.22;;
3567;SDS011;1798;48.486;9.232;2023-03-04T13:10:50;70.50;;;38.03;;
3567;SDS011;1798;48.486;9.232;2023-03-04T13:13:32;61.95;;;33.45;;
3567;SDS011;1798;48.486;9.232;2023-03-04T13:16:03;69.57;;;37.42;;
3567;SDS011;1798;48.486;9.232;2023-03-04T13:18:31;69.35;;;37.50;;
3567;SDS011;1798;48.486;9.232;2023-03-04T13:21:19;64.53;;;35.47;;
3567;SDS011;1798;48.486;9.232;2023-03-04T13:23:48;71.32;;;37.55;;
3567;SDS011;1798;48.486;9.232;2023-03-04T13:26:16;68.57;;;38.77;;
3567;SDS011;1798;48.486;9.232;2023-03-04T13:28:46;70.38;;;36.05;;
3567;SDS011;1798;48.486;9.232;2023-03-04T13:31:24;66.88;;;38.10;;
3567;SDS011;1798;48.486;9.232;2023-03-04T13:33:58;70.32;;;37.90;;
3567;SDS011;1798;48.486;9.232;2023-03-04T13:36:27;61.13;;;34.47;;
3567;SDS011;1798;48.486;9.232;2023-03-04T13:39:22;70.80;;;37.23;;
3567;SDS011;1798;48.486;9.232;2023-03-04T13:41:51;84.43;;;39.70;;
3567;SDS011;1798;48.486;9.232;2023-03-04T13:44:33;69.85;;;39.55;;
3567;SDS011;1798;48.486;9.232;2023-03-04T13:47:20;81.53;;;41.87;;
3567;SDS011;1798;48.486;9.232;2023-03-04T13:49:47;63.00;;;36.13;;
3567;SDS011;1798;48.486;9.232;2023-03-04T13:52:37;58.85;;;32.67;;
3567;SDS011;1798;48.486;9.232;2023-03-04T13:58:01;70.40;;;39.15;;
3567;SDS011;1798;48.486;9.232;2023-03-04T14:00:31;60.00;;;34.92;;
3567;SDS011;1798;48.486;9.232;2023-03-04T14:03:16;72.40;;;38.33;;
3567;SDS011;1798;48.486;9.232;2023-03-04T14:05:46;69.95;;;39.53;;
3567;SDS011;1798;48.486;9.232;2023-03-04T14:08:16;69.95;;;36.08;;
3567;SDS011;1798;48.486;9.232;2023-03-04T14:10:44;56.40;;;32.88;;
3567;SDS011;1798;48.486;9.232;2023-03-04T14:13:20;61.20;;;33.75;;
3567;SDS011;1798;48.486;9.232;2023-03-04T14:15:52;64.32;;;36.72;;
3567;SDS011;1798;48.486;9.232;2023-03-04T14:18:21;73.25;;;39.80;;
3567;SDS011;1798;48.486;9.232;2023-03-04T14:20:49;66.57;;;36.22;;
3567;SDS011;1798;48.486;9.232;2023-03-04T14:23:23;66.50;;;38.15;;
3567;SDS011;1798;48.486;9.232;2023-03-04T14:25:59;77.95;;;41.40;;
3567;SDS011;1798;48.486;9.232;2023-03-04T14:28:29;60.85;;;33.70;;
3567;SDS011;1798;48.486;9.232;2023-03-04T14:30:56;70.25;;;36.55;;
3567;SDS011;1798;48.486;9.232;2023-03-04T14:33:25;61.33;;;33.30;;
3567;SDS011;1798;48.486;9.232;2023-03-04T14:35:54;74.53;;;40.25;;
3567;SDS011;1798;48.486;9.232;2023-03-04T14:38:24;78.60;;;39.63;;
3567;SDS011;1798;48.486;9.232;2023-03-04T14:40:54;66.90;;;37.15;;
3567;SDS011;1798;48.486;9.232;2023-03-04T14:43:23;70.30;;;36.35;;
3567;SDS011;1798;48.486;9.232;2023-03-04T14:45:50;90.07;;;45.83;;
3567;SDS011;1798;48.486;9.232;2023-03-04T14:48:18;90.32;;;46.10;;
3567;SDS011;1798;48.486;9.232;2023-03-04T14:50:48;75.43;;;40.97;;
3567;SDS011;1798;48.486;9.232;2023-03-04T14:53:16;68.45;;;34.50;;
3567;SDS011;1798;48.486;9.232;2023-03-04T14:58:26;72.25;;;37.00;;
3567;SDS011;1798;48.486;9.232;2023-03-04T15:01:03;76.05;;;38.00;;
3567;SDS011;1798;48.486;9.232;2023-03-04T15:03:31;62.20;;;36.10;;
3567;SDS011;1798;48.486;9.232;2023-03-04T15:06:07;66.40;;;36.15;;